Time;durP1;ratioP1;P1;durP2;ratioP2;P2;SDS_P1;SDS_P2;PMS_P1;PMS_P2;Temp;Humidity;BMP_temperature;BMP_pressure;BME280_temperature;BME280_humidity;BME280_pressure;Samples;Min_cycle;Max_cycle;Signal;HPM_P1;HPM_P2
2023/04/23 00:02:00;;;;;;;2.25;2.00;;;;;;;;;;4957985;28;20601;-76
2023/04/23 00:04:27;;;;;;;2.58;1.92;;;;;;;;;;4957658;28;20050;-76
2023/04/23 00:06:54;;;;;;;2.83;1.88;;;;;;;;;;4975554;28;20050;-76
2023/04/23 00:09:21;;;;;;;3.30;2.03;;;;;;;;;;4973728;28;20133;-77
2023/04/23 00:11:48;;;;;;;3.63;1.85;;;;;;;;;;4956239;28;20047;-78
2023/04/23 00:14:15;;;;;;;3.83;1.95;;;;;;;;;;4953703;28;20051;-77
2023/04/23 00:16:42;;;;;;;3.17;1.88;;;;;;;;;;4962148;28;20050;-77
2023/04/23 00:19:09;;;;;;;2.47;1.85;;;;;;;;;;4989456;28;20120;-76
2023/04/23 00:21:36;;;;;;;4.22;2.13;;;;;;;;;;4989472;28;20058;-77
2023/04/23 00:24:02;;;;;;;4.95;2.10;;;;;;;;;;4972807;28;20221;-77
2023/04/23 00:26:29;;;;;;;2.67;2.15;;;;;;;;;;4958241;28;20053;-76
2023/04/23 00:28:56;;;;;;;2.63;1.88;;;;;;;;;;4996925;28;20058;-77
2023/04/23 00:31:23;;;;;;;3.47;2.08;;;;;;;;;;4964465;28;20110;-76
2023/04/23 00:33:50;;;;;;;4.22;1.60;;;;;;;;;;4970255;28;20082;-76
2023/04/23 00:36:17;;;;;;;2.85;1.80;;;;;;;;;;4988824;28;20090;-76
2023/04/23 00:38:43;;;;;;;3.40;1.60;;;;;;;;;;4957589;28;20054;-75
2023/04/23 00:41:10;;;;;;;3.85;1.88;;;;;;;;;;4990104;28;20050;-76
2023/04/23 00:43:37;;;;;;;3.35;1.80;;;;;;;;;;4955736;28;20054;-76
2023/04/23 00:46:04;;;;;;;2.08;1.65;;;;;;;;;;4954060;28;20050;-75
2023/04/23 00:48:31;;;;;;;3.05;1.60;;;;;;;;;;4970090;28;20138;-75
2023/04/23 00:51:06;;;;;;;4.05;2.17;;;;;;;;;;4960681;28;20053;-74
2023/04/23 00:53:33;;;;;;;4.90;2.00;;;;;;;;;;4977277;28;20088;-75
2023/04/23 00:56:01;;;;;;;1.77;1.50;;;;;;;;;;4951694;28;20054;-75
2023/04/23 00:58:28;;;;;;;4.40;2.75;;;;;;;;;;4941670;28;20066;-75
2023/04/23 01:00:55;;;;;;;4.22;1.70;;;;;;;;;;4976158;28;20050;-75
2023/04/23 01:03:22;;;;;;;4.75;1.90;;;;;;;;;;4977698;28;20109;-76
2023/04/23 01:05:49;;;;;;;2.75;2.00;;;;;;;;;;4961403;28;20046;-76
2023/04/23 01:08:17;;;;;;;3.85;1.80;;;;;;;;;;4976034;28;20105;-76
2023/04/23 01:10:44;;;;;;;3.40;1.75;;;;;;;;;;4958429;28;20055;-76
2023/04/23 01:13:12;;;;;;;6.47;1.88;;;;;;;;;;4961291;28;20054;-75
2023/04/23 01:15:39;;;;;;;2.17;1.60;;;;;;;;;;4960911;28;20077;-76
2023/04/23 01:18:08;;;;;;;4.40;1.60;;;;;;;;;;4992751;28;20062;-76
2023/04/23 01:20:36;;;;;;;3.78;1.98;;;;;;;;;;4993184;28;20053;-76
2023/04/23 01:23:03;;;;;;;3.78;1.83;;;;;;;;;;4955391;28;20522;-76
2023/04/23 01:25:30;;;;;;;4.55;2.00;;;;;;;;;;4957186;28;20054;-77
2023/04/23 01:27:57;;;;;;;2.42;1.65;;;;;;;;;;4993746;28;20057;-77
2023/04/23 01:30:25;;;;;;;4.43;1.80;;;;;;;;;;4960107;28;20061;-77
2023/04/23 01:32:55;;;;;;;1.98;1.77;;;;;;;;;;4961392;28;20101;-77
2023/04/23 01:35:23;;;;;;;4.55;1.88;;;;;;;;;;4976285;28;20050;-77
2023/04/23 01:37:51;;;;;;;3.85;1.95;;;;;;;;;;4965669;28;20054;-77
2023/04/23 01:40:19;;;;;;;2.92;1.90;;;;;;;;;;4974676;28;20058;-77
2023/04/23 01:42:47;;;;;;;2.22;1.85;;;;;;;;;;4979821;28;20042;-77
2023/04/23 01:45:13;;;;;;;3.10;1.88;;;;;;;;;;4942172;28;20058;-77
2023/04/23 01:47:40;;;;;;;2.72;2.05;;;;;;;;;;4982146;28;20060;-77
2023/04/23 01:50:08;;;;;;;2.35;1.65;;;;;;;;;;4999420;28;20124;-77
2023/04/23 01:52:35;;;;;;;3.67;2.17;;;;;;;;;;4983879;28;20054;-77
2023/04/23 01:55:02;;;;;;;3.22;1.75;;;;;;;;;;4983407;28;20068;-77
2023/04/23 01:57:29;;;;;;;2.85;1.75;;;;;;;;;;4961667;28;20050;-76
2023/04/23 02:00:00;;;;;;;2.45;1.67;;;;;;;;;;4976267;28;20217;-76
2023/04/23 02:02:27;;;;;;;4.03;2.22;;;;;;;;;;4948001;28;20050;-76
2023/04/23 02:04:54;;;;;;;4.03;1.98;;;;;;;;;;4975913;28;20054;-76
2023/04/23 02:07:21;;;;;;;2.78;1.70;;;;;;;;;;4943059;28;20059;-76
2023/04/23 02:09:47;;;;;;;3.38;2.00;;;;;;;;;;4970741;28;20058;-76
2023/04/23 02:12:14;;;;;;;4.00;2.30;;;;;;;;;;4980452;28;20125;-75
2023/04/23 02:14:41;;;;;;;6.45;2.28;;;;;;;;;;4986513;28;20426;-75
2023/04/23 02:17:08;;;;;;;3.67;1.83;;;;;;;;;;4989562;28;20116;-76
2023/04/23 02:19:35;;;;;;;3.40;2.05;;;;;;;;;;4975807;28;20054;-75
2023/04/23 02:22:02;;;;;;;2.40;2.10;;;;;;;;;;4984957;28;20442;-75
2023/04/23 02:24:28;;;;;;;3.08;2.47;;;;;;;;;;4974949;28;20062;-76
2023/04/23 02:26:56;;;;;;;2.28;2.08;;;;;;;;;;4992834;28;20046;-76
2023/04/23 02:29:23;;;;;;;3.00;2.70;;;;;;;;;;4981147;28;20104;-76
2023/04/23 02:31:50;;;;;;;5.80;2.40;;;;;;;;;;4982738;28;20046;-76
2023/04/23 02:34:17;;;;;;;4.60;2.70;;;;;;;;;;4991192;28;20050;-76
2023/04/23 02:36:44;;;;;;;2.67;2.15;;;;;;;;;;4975139;28;20601;-77
2023/04/23 02:39:11;;;;;;;2.92;2.38;;;;;;;;;;4975204;28;20054;-77
2023/04/23 02:41:37;;;;;;;2.70;2.50;;;;;;;;;;4980525;28;20057;-77
2023/04/23 02:44:04;;;;;;;3.97;3.20;;;;;;;;;;4992597;28;20116;-76
2023/04/23 02:46:31;;;;;;;4.75;2.78;;;;;;;;;;4992782;28;20062;-77
2023/04/23 02:48:58;;;;;;;4.07;2.25;;;;;;;;;;4974974;28;20050;-78
2023/04/23 02:51:25;;;;;;;3.60;2.60;;;;;;;;;;4990895;28;20145;-78
2023/04/23 02:53:52;;;;;;;3.60;2.35;;;;;;;;;;4991426;28;20137;-78
2023/04/23 02:56:18;;;;;;;5.55;2.72;;;;;;;;;;4975057;28;20050;-77
2023/04/23 02:58:45;;;;;;;4.00;2.92;;;;;;;;;;4991348;28;20092;-77
2023/04/23 03:01:12;;;;;;;3.28;2.97;;;;;;;;;;4974700;28;20054;-77
2023/04/23 03:03:39;;;;;;;8.50;5.05;;;;;;;;;;4994875;28;20054;-77
2023/04/23 03:06:06;;;;;;;5.35;3.60;;;;;;;;;;4991248;28;20058;-77
2023/04/23 03:08:33;;;;;;;5.15;3.10;;;;;;;;;;4975117;28;20049;-76
2023/04/23 03:11:00;;;;;;;6.43;3.40;;;;;;;;;;4975559;28;20050;-76
2023/04/23 03:13:26;;;;;;;3.63;3.22;;;;;;;;;;4990764;28;20181;-76
2023/04/23 03:15:53;;;;;;;4.55;3.40;;;;;;;;;;4973176;28;20220;-76
2023/04/23 03:18:20;;;;;;;4.32;3.40;;;;;;;;;;4974626;28;20058;-76
2023/04/23 03:20:47;;;;;;;4.65;3.15;;;;;;;;;;4990031;28;20065;-77
2023/04/23 03:23:14;;;;;;;4.20;3.13;;;;;;;;;;4958339;28;20054;-76
2023/04/23 03:25:41;;;;;;;4.38;3.35;;;;;;;;;;4990196;28;20062;-77
2023/04/23 03:28:07;;;;;;;4.43;3.40;;;;;;;;;;4980433;28;20089;-76
2023/04/23 03:30:34;;;;;;;4.68;3.92;;;;;;;;;;4968864;28;20069;-76
2023/04/23 03:33:01;;;;;;;5.32;3.35;;;;;;;;;;4974151;28;20137;-76
2023/04/23 03:35:28;;;;;;;5.45;3.50;;;;;;;;;;4973948;28;20460;-77
2023/04/23 03:37:55;;;;;;;5.47;3.10;;;;;;;;;;4991310;28;20499;-78
2023/04/23 03:40:22;;;;;;;5.15;3.20;;;;;;;;;;4977080;28;20061;-76
2023/04/23 03:42:48;;;;;;;4.18;3.38;;;;;;;;;;4988326;28;20051;-76
2023/04/23 03:45:18;;;;;;;4.82;3.33;;;;;;;;;;4991245;28;20062;-75
2023/04/23 03:47:45;;;;;;;3.97;3.38;;;;;;;;;;4974155;28;20061;-76
2023/04/23 03:50:12;;;;;;;3.78;3.28;;;;;;;;;;4971870;28;20567;-75
2023/04/23 03:52:41;;;;;;;4.25;3.47;;;;;;;;;;4971660;28;20090;-75
2023/04/23 03:55:08;;;;;;;3.63;3.30;;;;;;;;;;4971130;28;20054;-76
2023/04/23 03:57:35;;;;;;;4.68;2.80;;;;;;;;;;4944797;28;20060;-75
2023/04/23 04:00:03;;;;;;;3.63;2.83;;;;;;;;;;4956182;28;20511;-76
2023/04/23 04:02:30;;;;;;;5.40;3.28;;;;;;;;;;4989934;28;20053;-77
2023/04/23 04:04:57;;;;;;;4.57;3.33;;;;;;;;;;4974553;28;20078;-77
2023/04/23 04:07:24;;;;;;;5.32;2.90;;;;;;;;;;4959524;28;20054;-76
2023/04/23 04:09:51;;;;;;;6.90;2.67;;;;;;;;;;4959162;28;20514;-76
2023/04/23 04:12:18;;;;;;;4.88;2.72;;;;;;;;;;4981150;28;20084;-75
2023/04/23 04:14:45;;;;;;;3.35;2.45;;;;;;;;;;4991686;28;20066;-76
2023/04/23 04:17:14;;;;;;;3.97;2.55;;;;;;;;;;4991628;28;20609;-78
2023/04/23 04:19:41;;;;;;;2.92;2.50;;;;;;;;;;4974848;28;20136;-78
2023/04/23 04:22:08;;;;;;;4.43;2.70;;;;;;;;;;4989321;28;20085;-78
2023/04/23 04:24:36;;;;;;;2.50;2.13;;;;;;;;;;4989749;28;20054;-79
2023/04/23 04:27:04;;;;;;;4.00;2.95;;;;;;;;;;4959567;28;20058;-77
2023/04/23 04:29:30;;;;;;;2.65;2.35;;;;;;;;;;4959846;28;20054;-78
2023/04/23 04:31:58;;;;;;;3.83;2.50;;;;;;;;;;4975318;28;20141;-76
2023/04/23 04:34:25;;;;;;;2.50;2.30;;;;;;;;;;4976266;28;20052;-76
2023/04/23 04:36:52;;;;;;;3.03;2.22;;;;;;;;;;4991323;28;20089;-76
2023/04/23 04:39:19;;;;;;;3.78;2.40;;;;;;;;;;4991416;28;20050;-76
2023/04/23 04:41:46;;;;;;;8.90;2.90;;;;;;;;;;4991192;28;20499;-76
2023/04/23 04:44:15;;;;;;;2.67;2.47;;;;;;;;;;4991120;28;20072;-77
2023/04/23 04:46:42;;;;;;;3.15;2.47;;;;;;;;;;4974939;28;20058;-76
2023/04/23 04:49:09;;;;;;;3.17;2.10;;;;;;;;;;4990602;28;20515;-76
2023/04/23 04:51:37;;;;;;;2.22;2.03;;;;;;;;;;4973525;28;20058;-77
2023/04/23 04:54:04;;;;;;;3.00;2.15;;;;;;;;;;4957203;28;20058;-76
2023/04/23 04:56:30;;;;;;;2.65;2.00;;;;;;;;;;4974704;28;20058;-76
2023/04/23 04:58:57;;;;;;;2.47;1.73;;;;;;;;;;4991051;28;20137;-77
2023/04/23 05:01:25;;;;;;;2.30;2.10;;;;;;;;;;4982953;28;20069;-77
2023/04/23 05:03:52;;;;;;;2.17;1.58;;;;;;;;;;4975795;28;20055;-77
2023/04/23 05:06:19;;;;;;;3.10;2.08;;;;;;;;;;4975370;28;20050;-76
2023/04/23 05:08:47;;;;;;;1.70;1.60;;;;;;;;;;4985428;28;20062;-76
2023/04/23 05:11:15;;;;;;;2.22;2.03;;;;;;;;;;4958413;28;20103;-76
2023/04/23 05:13:45;;;;;;;2.42;1.63;;;;;;;;;;4948221;28;20107;-76
2023/04/23 05:16:12;;;;;;;2.10;1.63;;;;;;;;;;4940201;28;20051;-75
2023/04/23 05:18:40;;;;;;;2.75;1.90;;;;;;;;;;4954765;28;20499;-75
2023/04/23 05:21:07;;;;;;;1.80;1.70;;;;;;;;;;4954458;28;20057;-75
2023/04/23 05:23:35;;;;;;;3.85;1.80;;;;;;;;;;4954593;28;20058;-75
2023/04/23 05:26:03;;;;;;;2.95;1.40;;;;;;;;;;4966233;28;20085;-76
2023/04/23 05:28:31;;;;;;;3.80;1.38;;;;;;;;;;4958083;28;20069;-75
2023/04/23 05:30:58;;;;;;;4.47;1.70;;;;;;;;;;4989078;28;20050;-75
2023/04/23 05:33:25;;;;;;;1.83;1.67;;;;;;;;;;4970486;28;20046;-75
2023/04/23 05:35:58;;;;;;;1.88;1.67;;;;;;;;;;4960132;28;20057;-75
2023/04/23 05:38:25;;;;;;;3.92;1.95;;;;;;;;;;4960712;28;20120;-75
2023/04/23 05:40:52;;;;;;;2.50;1.42;;;;;;;;;;4976684;28;20547;-76
2023/04/23 05:43:19;;;;;;;3.42;1.90;;;;;;;;;;4977825;28;20046;-76
2023/04/23 05:45:46;;;;;;;3.58;1.90;;;;;;;;;;4992812;28;20060;-77
2023/04/23 05:48:13;;;;;;;1.70;1.60;;;;;;;;;;4976770;28;20092;-76
2023/04/23 05:50:39;;;;;;;2.38;1.20;;;;;;;;;;4976366;28;20140;-76
2023/04/23 05:53:06;;;;;;;3.33;1.48;;;;;;;;;;4976290;28;20078;-76
2023/04/23 05:55:33;;;;;;;1.50;1.40;;;;;;;;;;4976407;28;20057;-77
2023/04/23 05:58:00;;;;;;;2.72;1.30;;;;;;;;;;4957157;28;20061;-76
2023/04/23 06:00:27;;;;;;;2.08;1.40;;;;;;;;;;4956721;28;20058;-76
2023/04/23 06:02:53;;;;;;;2.20;1.30;;;;;;;;;;4956990;28;20062;-76
2023/04/23 06:05:20;;;;;;;2.83;1.30;;;;;;;;;;4971206;28;20069;-76
2023/04/23 06:07:47;;;;;;;1.63;0.98;;;;;;;;;;4992631;28;20059;-77
2023/04/23 06:10:14;;;;;;;1.95;1.33;;;;;;;;;;4993091;28;20060;-77
2023/04/23 06:12:41;;;;;;;1.50;1.23;;;;;;;;;;4977170;28;20054;-77
2023/04/23 06:15:08;;;;;;;2.78;0.93;;;;;;;;;;4992502;28;20058;-76
2023/04/23 06:17:35;;;;;;;2.17;0.98;;;;;;;;;;4960606;28;20054;-77
2023/04/23 06:20:07;;;;;;;1.33;1.20;;;;;;;;;;4992464;28;20490;-76
2023/04/23 06:22:34;;;;;;;1.17;1.08;;;;;;;;;;4976731;28;20050;-78
2023/04/23 06:25:01;;;;;;;1.27;1.13;;;;;;;;;;4978110;28;20054;-76
2023/04/23 06:27:27;;;;;;;1.50;1.10;;;;;;;;;;4993375;28;20058;-76
2023/04/23 06:29:54;;;;;;;1.17;0.93;;;;;;;;;;4975806;28;20069;-78
2023/04/23 06:32:21;;;;;;;1.92;1.20;;;;;;;;;;4976588;28;20054;-81
2023/04/23 06:34:51;;;;;;;1.30;1.00;;;;;;;;;;4992491;28;20089;-77
2023/04/23 06:37:30;;;;;;;1.15;0.80;;;;;;;;;;4979508;28;20133;-76
2023/04/23 06:39:58;;;;;;;2.58;0.80;;;;;;;;;;4977536;28;20053;-78
2023/04/23 06:42:35;;;;;;;2.15;1.25;;;;;;;;;;4993799;28;20057;-75
2023/04/23 06:45:03;;;;;;;2.20;1.50;;;;;;;;;;4993011;28;20056;-76
2023/04/23 06:47:38;;;;;;;1.83;0.95;;;;;;;;;;4991399;28;20104;-72
2023/04/23 06:50:07;;;;;;;1.63;0.88;;;;;;;;;;4995088;28;20137;-76
2023/04/23 06:52:34;;;;;;;0.75;0.75;;;;;;;;;;4976284;28;20057;-76
2023/04/23 06:55:01;;;;;;;2.25;0.90;;;;;;;;;;4974942;28;20137;-76
2023/04/23 06:57:31;;;;;;;1.23;0.90;;;;;;;;;;4993546;28;20114;-75
2023/04/23 07:00:01;;;;;;;1.73;1.17;;;;;;;;;;4961068;28;20582;-76
2023/04/23 07:02:28;;;;;;;2.63;1.00;;;;;;;;;;4976060;28;20046;-74
2023/04/23 07:04:55;;;;;;;1.27;0.77;;;;;;;;;;4991687;28;20358;-74
2023/04/23 07:07:22;;;;;;;0.95;0.60;;;;;;;;;;4992108;28;20086;-75
2023/04/23 07:09:49;;;;;;;0.90;0.90;;;;;;;;;;4991338;28;20093;-76
2023/04/23 07:12:15;;;;;;;0.60;0.60;;;;;;;;;;4961489;28;20137;-75
2023/04/23 07:14:42;;;;;;;1.33;0.90;;;;;;;;;;4988081;28;20125;-74
2023/04/23 07:17:10;;;;;;;2.40;0.73;;;;;;;;;;4990518;28;20088;-74
2023/04/23 07:19:37;;;;;;;0.68;0.52;;;;;;;;;;4955777;28;20077;-74
2023/04/23 07:22:04;;;;;;;0.88;0.60;;;;;;;;;;4959447;28;20065;-74
2023/04/23 07:24:33;;;;;;;0.70;0.70;;;;;;;;;;4992058;28;20419;-72
2023/04/23 07:27:01;;;;;;;0.85;0.80;;;;;;;;;;4942653;28;20050;-75
2023/04/23 07:29:30;;;;;;;1.00;0.90;;;;;;;;;;4958570;28;20065;-75
2023/04/23 07:31:57;;;;;;;0.73;0.73;;;;;;;;;;4989334;28;20073;-75
2023/04/23 07:34:23;;;;;;;0.93;0.60;;;;;;;;;;4988975;28;20081;-75
2023/04/23 07:36:51;;;;;;;0.80;0.70;;;;;;;;;;4990746;28;20054;-79
2023/04/23 07:39:17;;;;;;;2.38;0.80;;;;;;;;;;4989231;28;20061;-75
2023/04/23 07:41:44;;;;;;;1.00;0.90;;;;;;;;;;4990070;28;20570;-77
2023/04/23 07:44:11;;;;;;;0.63;0.50;;;;;;;;;;4989959;28;20050;-78
2023/04/23 07:46:38;;;;;;;0.90;0.75;;;;;;;;;;4992105;28;20085;-76
2023/04/23 07:49:06;;;;;;;0.80;0.80;;;;;;;;;;4991290;28;20438;-75
2023/04/23 07:51:33;;;;;;;0.65;0.57;;;;;;;;;;4957944;28;20093;-78
2023/04/23 07:54:00;;;;;;;1.90;0.70;;;;;;;;;;4973494;28;20058;-75
2023/04/23 07:56:27;;;;;;;0.60;0.60;;;;;;;;;;4990109;28;20633;-77
2023/04/23 07:58:55;;;;;;;1.02;0.63;;;;;;;;;;4988632;28;20502;-77
2023/04/23 08:01:22;;;;;;;1.08;0.90;;;;;;;;;;4957099;28;20054;-76
2023/04/23 08:03:48;;;;;;;1.85;0.60;;;;;;;;;;4973465;28;20084;-75
2023/04/23 08:06:17;;;;;;;1.35;0.80;;;;;;;;;;4988434;28;20062;-75
2023/04/23 08:08:43;;;;;;;0.88;0.88;;;;;;;;;;4988586;28;20070;-75
2023/04/23 08:11:10;;;;;;;1.10;0.93;;;;;;;;;;4957518;28;20060;-76
2023/04/23 08:13:37;;;;;;;2.17;1.27;;;;;;;;;;4956241;28;20058;-76
2023/04/23 08:16:04;;;;;;;1.80;1.13;;;;;;;;;;4971883;28;20062;-75
2023/04/23 08:18:31;;;;;;;0.80;0.80;;;;;;;;;;4989632;28;20058;-76
2023/04/23 08:20:58;;;;;;;3.03;1.42;;;;;;;;;;4990756;28;20427;-77
2023/04/23 08:23:25;;;;;;;0.80;0.80;;;;;;;;;;4989644;28;20050;-76
2023/04/23 08:25:51;;;;;;;2.70;0.98;;;;;;;;;;4989410;28;20061;-76
2023/04/23 08:28:18;;;;;;;1.63;0.90;;;;;;;;;;4974733;28;20411;-79
2023/04/23 08:30:45;;;;;;;1.70;0.80;;;;;;;;;;4989722;28;20391;-77
2023/04/23 08:33:13;;;;;;;1.17;0.80;;;;;;;;;;4990019;28;20054;-77
2023/04/23 08:35:40;;;;;;;2.38;0.90;;;;;;;;;;4958757;28;20054;-77
2023/04/23 08:38:06;;;;;;;1.17;0.82;;;;;;;;;;4996997;28;20094;-76
2023/04/23 08:40:35;;;;;;;1.40;0.80;;;;;;;;;;4989485;28;20050;-76
2023/04/23 08:43:06;;;;;;;0.90;0.90;;;;;;;;;;4957965;28;20050;-75
2023/04/23 08:45:32;;;;;;;2.50;1.10;;;;;;;;;;4957890;28;20066;-76
2023/04/23 08:48:00;;;;;;;1.75;0.98;;;;;;;;;;4974375;28;20050;-76
2023/04/23 08:50:28;;;;;;;1.20;1.10;;;;;;;;;;4989646;28;20534;-76
2023/04/23 08:52:56;;;;;;;1.10;0.90;;;;;;;;;;4974455;28;20113;-76
2023/04/23 08:55:23;;;;;;;1.38;1.00;;;;;;;;;;4970766;28;20055;-76
2023/04/23 08:57:50;;;;;;;2.05;1.38;;;;;;;;;;4990034;28;20137;-76
2023/04/23 09:00:18;;;;;;;0.80;0.80;;;;;;;;;;4958809;28;20060;-79
2023/04/23 09:02:46;;;;;;;4.68;4.07;;;;;;;;;;4993637;28;20073;-77
2023/04/23 09:05:14;;;;;;;3.83;2.20;;;;;;;;;;4961442;28;20177;-76
2023/04/23 09:07:41;;;;;;;3.67;1.30;;;;;;;;;;4978498;28;20877;-76
2023/04/23 09:10:10;;;;;;;1.15;1.02;;;;;;;;;;4963749;28;20119;-76
2023/04/23 09:12:38;;;;;;;1.67;1.13;;;;;;;;;;4969248;28;20113;-77
2023/04/23 09:15:09;;;;;;;0.93;0.82;;;;;;;;;;4951031;28;20062;-75
2023/04/23 09:17:39;;;;;;;1.33;1.23;;;;;;;;;;4980310;28;20696;-74
2023/04/23 09:20:10;;;;;;;1.02;0.90;;;;;;;;;;4947598;28;20120;-74
2023/04/23 09:22:47;;;;;;;0.98;0.88;;;;;;;;;;4976404;28;20062;-73
2023/04/23 09:25:21;;;;;;;1.33;0.90;;;;;;;;;;4959506;28;20856;-73
2023/04/23 09:27:49;;;;;;;1.75;0.98;;;;;;;;;;4959825;28;20070;-75
2023/04/23 09:30:17;;;;;;;1.02;0.93;;;;;;;;;;4957855;28;20065;-74
2023/04/23 09:32:44;;;;;;;1.25;1.00;;;;;;;;;;4957595;28;20069;-73
2023/04/23 09:35:16;;;;;;;1.05;1.00;;;;;;;;;;4942795;28;20738;-73
2023/04/23 09:37:47;;;;;;;1.95;0.95;;;;;;;;;;4975400;28;20050;-77
2023/04/23 09:40:18;;;;;;;3.15;0.90;;;;;;;;;;4975552;28;20057;-76
2023/04/23 09:42:51;;;;;;;2.35;0.93;;;;;;;;;;4959255;28;20070;-76
2023/04/23 09:45:18;;;;;;;1.13;0.80;;;;;;;;;;4988841;28;20664;-73
2023/04/23 09:47:56;;;;;;;1.05;0.95;;;;;;;;;;4991300;28;20061;-74
2023/04/23 09:50:37;;;;;;;1.20;0.88;;;;;;;;;;4974776;28;20446;-74
2023/04/23 09:53:06;;;;;;;0.88;0.88;;;;;;;;;;4978272;28;20073;-73
2023/04/23 09:55:37;;;;;;;1.33;0.90;;;;;;;;;;4960561;28;20515;-75
2023/04/23 09:58:09;;;;;;;1.20;0.77;;;;;;;;;;4971081;28;20061;-74
2023/04/23 10:00:37;;;;;;;1.10;0.80;;;;;;;;;;4955682;28;20054;-79
2023/04/23 10:03:08;;;;;;;1.38;0.60;;;;;;;;;;4963615;28;20515;-74
2023/04/23 10:05:40;;;;;;;1.02;0.93;;;;;;;;;;4968387;28;20055;-76
2023/04/23 10:08:20;;;;;;;1.75;1.30;;;;;;;;;;4981602;28;20054;-75
2023/04/23 10:10:47;;;;;;;1.88;0.90;;;;;;;;;;4980111;28;20050;-75
2023/04/23 10:13:32;;;;;;;0.68;0.68;;;;;;;;;;4971050;28;20096;-75
2023/04/23 10:16:00;;;;;;;2.10;0.90;;;;;;;;;;4962325;28;20046;-74
2023/04/23 10:18:47;;;;;;;1.38;0.95;;;;;;;;;;4982116;28;20057;-75
2023/04/23 10:21:15;;;;;;;0.60;0.60;;;;;;;;;;4962780;28;20069;-75
2023/04/23 10:23:42;;;;;;;1.45;1.02;;;;;;;;;;4979645;28;20056;-73
2023/04/23 10:26:08;;;;;;;1.33;0.80;;;;;;;;;;4981057;28;20153;-74
2023/04/23 10:28:35;;;;;;;1.05;0.70;;;;;;;;;;4963640;28;20058;-73
2023/04/23 10:31:02;;;;;;;1.85;0.70;;;;;;;;;;4963818;28;20569;-73
2023/04/23 10:33:30;;;;;;;0.60;0.60;;;;;;;;;;4988529;28;20461;-73
2023/04/23 10:36:08;;;;;;;0.93;0.38;;;;;;;;;;4997332;28;20050;-73
2023/04/23 10:38:35;;;;;;;1.80;0.90;;;;;;;;;;4998349;28;20513;-72
2023/04/23 10:41:10;;;;;;;0.73;0.70;;;;;;;;;;4997835;28;20104;-73
2023/04/23 10:43:37;;;;;;;0.68;0.52;;;;;;;;;;4964126;28;20054;-75
2023/04/23 10:46:26;;;;;;;1.23;0.50;;;;;;;;;;4978752;28;20050;-77
2023/04/23 10:49:13;;;;;;;0.93;0.50;;;;;;;;;;4997823;28;20057;-74
2023/04/23 10:51:43;;;;;;;0.57;0.43;;;;;;;;;;4998971;28;20490;-73
2023/04/23 10:54:16;;;;;;;0.55;0.40;;;;;;;;;;4997549;28;20046;-73
2023/04/23 10:56:42;;;;;;;1.20;0.40;;;;;;;;;;4981467;28;20227;-72
2023/04/23 10:59:30;;;;;;;0.82;0.60;;;;;;;;;;4997396;28;20061;-72
2023/04/23 11:01:58;;;;;;;1.33;0.47;;;;;;;;;;4994321;28;20058;-73
2023/04/23 11:04:27;;;;;;;1.10;0.40;;;;;;;;;;4979759;28;20049;-74
2023/04/23 11:07:08;;;;;;;0.73;0.45;;;;;;;;;;4983467;28;20651;-73
2023/04/23 11:09:46;;;;;;;0.40;0.40;;;;;;;;;;4976767;28;20051;-73
2023/04/23 11:12:19;;;;;;;0.43;0.43;;;;;;;;;;4991852;28;20058;-76
2023/04/23 11:14:48;;;;;;;0.50;0.40;;;;;;;;;;4981748;28;20042;-75
2023/04/23 11:17:37;;;;;;;0.63;0.50;;;;;;;;;;4983237;28;20133;-76
2023/04/23 11:20:12;;;;;;;0.68;0.50;;;;;;;;;;4974534;28;20069;-76
2023/04/23 11:22:44;;;;;;;2.10;0.60;;;;;;;;;;4972882;28;20050;-76
2023/04/23 11:25:13;;;;;;;0.50;0.40;;;;;;;;;;4970336;28;20051;-75
2023/04/23 11:27:44;;;;;;;0.60;0.60;;;;;;;;;;4985603;28;20307;-75
2023/04/23 11:30:15;;;;;;;1.13;0.50;;;;;;;;;;4987590;28;20058;-81
2023/04/23 11:32:50;;;;;;;1.40;0.63;;;;;;;;;;4969011;28;20057;-77
2023/04/23 11:35:23;;;;;;;0.80;0.63;;;;;;;;;;4966296;28;20509;-77
2023/04/23 11:37:50;;;;;;;0.50;0.50;;;;;;;;;;4968152;28;20053;-77
2023/04/23 11:40:20;;;;;;;1.10;0.50;;;;;;;;;;5007715;28;20421;-77
2023/04/23 11:42:49;;;;;;;0.60;0.60;;;;;;;;;;4977183;28;20054;-78
2023/04/23 11:45:20;;;;;;;0.65;0.60;;;;;;;;;;4965016;28;20046;-78
2023/04/23 11:47:49;;;;;;;1.52;0.57;;;;;;;;;;4980162;28;20104;-77
2023/04/23 11:50:20;;;;;;;0.50;0.50;;;;;;;;;;4985003;28;20809;-76
2023/04/23 11:52:47;;;;;;;1.33;0.40;;;;;;;;;;4984981;28;20492;-77
2023/04/23 11:55:15;;;;;;;0.70;0.60;;;;;;;;;;4965502;28;20142;-77
2023/04/23 11:57:43;;;;;;;0.50;0.50;;;;;;;;;;4965899;28;20054;-76
2023/04/23 12:00:13;;;;;;;0.45;0.32;;;;;;;;;;4970160;28;20058;-77
2023/04/23 12:02:56;;;;;;;0.82;0.50;;;;;;;;;;4963127;28;20446;-76
2023/04/23 12:05:31;;;;;;;1.75;0.50;;;;;;;;;;4997912;28;20050;-76
2023/04/23 12:08:09;;;;;;;0.85;0.40;;;;;;;;;;4964409;28;20054;-76
2023/04/23 12:10:48;;;;;;;1.05;0.60;;;;;;;;;;4974329;28;20058;-75
2023/04/23 12:13:21;;;;;;;0.40;0.40;;;;;;;;;;4962352;28;20057;-76
2023/04/23 12:15:55;;;;;;;0.55;0.52;;;;;;;;;;4971455;28;20133;-76
2023/04/23 12:18:34;;;;;;;1.48;0.63;;;;;;;;;;4957095;28;20059;-73
2023/04/23 12:21:08;;;;;;;0.70;0.63;;;;;;;;;;4976509;28;20490;-74
2023/04/23 12:23:36;;;;;;;0.93;0.73;;;;;;;;;;4990784;28;20046;-74
2023/04/23 12:26:03;;;;;;;0.60;0.43;;;;;;;;;;4949067;28;20050;-74
2023/04/23 12:28:30;;;;;;;0.55;0.52;;;;;;;;;;4972769;28;20058;-76
2023/04/23 12:31:01;;;;;;;1.45;0.60;;;;;;;;;;4990815;28;20085;-77
2023/04/23 12:33:29;;;;;;;0.30;0.30;;;;;;;;;;4965772;28;20058;-77
2023/04/23 12:35:56;;;;;;;0.50;0.40;;;;;;;;;;4974854;28;20054;-77
2023/04/23 12:38:25;;;;;;;1.73;0.60;;;;;;;;;;4986007;28;20058;-77
2023/04/23 12:40:57;;;;;;;1.00;0.40;;;;;;;;;;4974701;28;20317;-77
2023/04/23 12:43:25;;;;;;;1.05;0.60;;;;;;;;;;4974116;28;20527;-77
2023/04/23 12:45:53;;;;;;;0.50;0.50;;;;;;;;;;4960115;28;20090;-78
2023/04/23 12:48:20;;;;;;;0.65;0.40;;;;;;;;;;4977289;28;20084;-78
2023/04/23 12:50:47;;;;;;;0.95;0.50;;;;;;;;;;4986355;28;20050;-78
2023/04/23 12:53:15;;;;;;;1.33;0.50;;;;;;;;;;4971581;28;20519;-78
2023/04/23 12:55:44;;;;;;;1.48;0.55;;;;;;;;;;4994229;28;20061;-78
2023/04/23 12:58:11;;;;;;;1.02;0.70;;;;;;;;;;5009630;28;20097;-78
2023/04/23 13:00:38;;;;;;;0.70;0.50;;;;;;;;;;5007869;28;20143;-77
2023/04/23 13:03:05;;;;;;;1.42;0.43;;;;;;;;;;4968677;28;20781;-78
2023/04/23 13:05:32;;;;;;;0.50;0.50;;;;;;;;;;4992944;28;20482;-78
2023/04/23 13:07:58;;;;;;;0.75;0.50;;;;;;;;;;4992989;28;20050;-79
2023/04/23 13:10:25;;;;;;;0.70;0.50;;;;;;;;;;5001002;28;20487;-78
2023/04/23 13:12:52;;;;;;;0.93;0.50;;;;;;;;;;4960359;28;20102;-78
2023/04/23 13:15:18;;;;;;;1.50;0.50;;;;;;;;;;4988690;28;20046;-78
2023/04/23 13:17:46;;;;;;;0.63;0.47;;;;;;;;;;4969134;28;20073;-78
2023/04/23 13:20:12;;;;;;;1.27;0.68;;;;;;;;;;4991295;28;20066;-78
2023/04/23 13:22:39;;;;;;;0.52;0.40;;;;;;;;;;4992361;28;20093;-78
2023/04/23 13:25:06;;;;;;;0.88;0.73;;;;;;;;;;4993436;28;20061;-78
2023/04/23 13:27:33;;;;;;;0.80;0.40;;;;;;;;;;4992905;28;20046;-78
2023/04/23 13:30:00;;;;;;;5.90;0.63;;;;;;;;;;4992742;28;20054;-78
2023/04/23 13:32:30;;;;;;;0.85;0.60;;;;;;;;;;4993468;28;20142;-78
2023/04/23 13:35:02;;;;;;;0.50;0.50;;;;;;;;;;4978106;28;20060;-78
2023/04/23 13:37:30;;;;;;;0.70;0.70;;;;;;;;;;4977724;28;20071;-78
2023/04/23 13:39:57;;;;;;;1.17;0.70;;;;;;;;;;4977823;28;20109;-78
2023/04/23 13:42:24;;;;;;;2.17;0.70;;;;;;;;;;4992467;28;20502;-78
2023/04/23 13:44:51;;;;;;;0.73;0.50;;;;;;;;;;4958809;28;20090;-78
2023/04/23 13:47:18;;;;;;;0.93;0.40;;;;;;;;;;4974369;28;20062;-78
2023/04/23 13:49:44;;;;;;;0.65;0.60;;;;;;;;;;4972500;28;20054;-78
2023/04/23 13:52:11;;;;;;;1.73;0.75;;;;;;;;;;4994029;28;20061;-78
2023/04/23 13:54:38;;;;;;;1.80;1.30;;;;;;;;;;4977043;28;20058;-77
2023/04/23 13:57:05;;;;;;;1.63;0.90;;;;;;;;;;4976397;28;20090;-80
2023/04/23 13:59:32;;;;;;;1.77;0.60;;;;;;;;;;4962137;28;20104;-79
2023/04/23 14:01:59;;;;;;;0.63;0.57;;;;;;;;;;4993722;28;20061;-77
2023/04/23 14:04:25;;;;;;;3.08;0.82;;;;;;;;;;5002717;28;20438;-82
2023/04/23 14:06:52;;;;;;;1.58;1.20;;;;;;;;;;4951688;28;20574;-83
2023/04/23 14:09:21;;;;;;;1.05;0.68;;;;;;;;;;4959745;28;20157;-79
2023/04/23 14:11:48;;;;;;;1.13;0.50;;;;;;;;;;5000751;28;20525;-80
2023/04/23 14:14:15;;;;;;;2.30;0.80;;;;;;;;;;4997912;28;20053;-79
2023/04/23 14:16:42;;;;;;;1.13;0.90;;;;;;;;;;4998434;28;20476;-79
2023/04/23 14:19:09;;;;;;;1.70;1.20;;;;;;;;;;4967191;28;20054;-78
2023/04/23 14:21:37;;;;;;;1.92;1.27;;;;;;;;;;4984483;28;20101;-80
2023/04/23 14:24:11;;;;;;;1.25;0.77;;;;;;;;;;5004107;28;20137;-77
2023/04/23 14:26:41;;;;;;;2.30;0.63;;;;;;;;;;4969253;28;20429;-75
2023/04/23 14:29:29;;;;;;;2.17;1.45;;;;;;;;;;5000239;28;20098;-75
2023/04/23 14:31:55;;;;;;;3.58;1.52;;;;;;;;;;4981139;28;20054;-75
2023/04/23 14:34:22;;;;;;;1.25;1.13;;;;;;;;;;4986637;28;20085;-78
2023/04/23 14:36:51;;;;;;;1.52;1.05;;;;;;;;;;4982592;28;20060;-76
2023/04/23 14:39:21;;;;;;;2.38;1.70;;;;;;;;;;4979005;28;20086;-76
2023/04/23 14:41:48;;;;;;;3.40;1.08;;;;;;;;;;4976732;28;20046;-76
2023/04/23 14:44:14;;;;;;;1.17;0.90;;;;;;;;;;4999919;28;20058;-76
2023/04/23 14:46:41;;;;;;;2.63;1.67;;;;;;;;;;4983845;28;20145;-76
2023/04/23 14:49:08;;;;;;;1.08;0.93;;;;;;;;;;4987729;28;20145;-74
2023/04/23 14:51:36;;;;;;;1.05;0.85;;;;;;;;;;5001592;28;20060;-75